Weather reports worldwide

Advertisment
Desenzano, Italy (16089): temperature & dewpoint: 16.02.2019 22:00:00 - 22.02.2019 22:00:00 (CET)Desenzano, Italy (16089): wind speed: 16.02.2019 22:00:00 - 22.02.2019 22:00:00 (CET)Desenzano, Italy (16089): wind direction: 16.02.2019 22:00:00 - 22.02.2019 22:00:00 (CET)Desenzano, Italy (16089): reduced air pressure: 16.02.2019 22:00:00 - 22.02.2019 22:00:00 (CET)
Date & Time tt [°C] td [°C] ff [km/h] ff [kn] dd ppp [hPa]
22.02.2019 22:00:00 - - - - - -
22.02.2019 21:00:00 9,2 6,4 0 0 N 1025,8
22.02.2019 20:00:00 10,2 6,7 0 0 N 1025,5
22.02.2019 19:00:00 11,7 6,8 0 0 N 1025,1
22.02.2019 18:00:00 14,3 7,7 0 0 N 1024,2
22.02.2019 17:00:00 16,4 8,3 2 1 E 1023,5
22.02.2019 16:00:00 18,6 9,6 11 6 E 1022,6
22.02.2019 15:00:00 15,8 7,2 0 0 N 1022,0
22.02.2019 14:00:00 14,8 8,0 4 2 WNW 1022,0
22.02.2019 13:00:00 16,0 7,4 9 5 ENE 1022,7
22.02.2019 12:00:00 14,9 6,9 0 0 N 1023,3
22.02.2019 11:00:00 15,0 8,0 0 0 N 1023,8
22.02.2019 10:00:00 13,2 7,8 0 0 N 1023,8
22.02.2019 09:00:00 8,1 7,3 0 0 N 1024,4
22.02.2019 08:00:00 4,9 2,9 0 0 N 1024,3
22.02.2019 07:00:00 4,6 2,4 2 1 S 1024,1
22.02.2019 06:00:00 4,0 2,6 0 0 N 1024,4
22.02.2019 05:00:00 4,2 3,2 0 0 N 1024,8
22.02.2019 04:00:00 4,3 3,1 0 0 N 1025,2
22.02.2019 03:00:00 5,0 3,8 0 0 N 1025,6
22.02.2019 02:00:00 5,2 3,2 0 0 N 1026,0
22.02.2019 01:00:00 6,0 4,0 0 0 N 1026,5
22.02.2019 00:00:00 6,1 4,6 0 0 N 1026,5
21.02.2019 23:00:00 6,3 4,4 0 0 N 1026,6
21.02.2019 22:00:00 7,0 5,0 0 0 N 1026,4
21.02.2019 21:00:00 7,8 5,2 0 0 N 1026,4
21.02.2019 20:00:00 8,5 5,0 0 0 N 1026,1
21.02.2019 19:00:00 10,0 5,7 0 0 N 1026,3
21.02.2019 18:00:00 12,8 6,5 0 0 N 1026,1
21.02.2019 17:00:00 14,1 7,3 0 0 N 1026,0
21.02.2019 16:00:00 13,2 6,9 0 0 N 1026,4
21.02.2019 15:00:00 14,8 7,8 0 0 N 1026,7
21.02.2019 14:00:00 16,3 8,5 0 0 N 1027,0
21.02.2019 13:00:00 12,6 8,4 0 0 N 1027,8
21.02.2019 12:00:00 11,0 5,7 0 0 N 1028,4
21.02.2019 11:00:00 9,4 8,0 0 0 N 1028,8
21.02.2019 10:00:00 6,7 6,7 0 0 N 1028,7
21.02.2019 09:00:00 4,6 4,6 0 0 N 1028,8
21.02.2019 08:00:00 3,7 3,7 0 0 N 1028,1
21.02.2019 07:00:00 3,2 3,1 0 0 N 1027,6
21.02.2019 06:00:00 3,1 3,0 0 0 N 1027,5
21.02.2019 05:00:00 3,4 3,1 0 0 N 1027,5
21.02.2019 04:00:00 3,8 3,8 0 0 N 1027,5
21.02.2019 03:00:00 3,8 3,5 0 0 N 1027,5
21.02.2019 02:00:00 4,1 3,7 0 0 N 1027,5
21.02.2019 01:00:00 4,6 4,2 0 0 N 1027,4
21.02.2019 00:00:00 4,8 4,2 0 0 N 1027,1
20.02.2019 23:00:00 5,1 4,4 0 0 N 1027,0
20.02.2019 22:00:00 5,6 4,7 0 0 N 1026,8
20.02.2019 21:00:00 6,1 5,0 0 0 N 1026,3
20.02.2019 20:00:00 7,2 5,6 0 0 N 1025,7
20.02.2019 19:00:00 8,2 6,1 0 0 N 1025,2
20.02.2019 18:00:00 9,6 7,3 0 0 N 1024,4
20.02.2019 17:00:00 10,2 7,8 5 3 NE 1024,2
20.02.2019 16:00:00 11,4 7,3 8 4 NE 1024,3
20.02.2019 15:00:00 12,0 7,1 2 1 SW 1024,5
20.02.2019 14:00:00 12,4 7,0 4 2 SSW 1024,6
20.02.2019 13:00:00 11,1 6,8 0 0 N 1025,1
20.02.2019 12:00:00 9,2 6,8 2 1 ENE 1025,8
20.02.2019 11:00:00 6,8 5,7 0 0 N 1026,1
20.02.2019 10:00:00 6,3 6,3 0 0 N 1025,8
20.02.2019 09:00:00 5,4 5,4 0 0 N 1025,4
20.02.2019 08:00:00 4,6 4,6 0 0 N 1024,8
20.02.2019 07:00:00 4,2 4,2 0 0 N 1024,2
20.02.2019 06:00:00 3,8 3,7 0 0 N 1024,2
20.02.2019 05:00:00 3,6 3,3 0 0 N 1024,3
20.02.2019 04:00:00 3,5 3,1 0 0 N 1024,1
20.02.2019 03:00:00 3,4 2,8 0 0 N 1024,2
20.02.2019 02:00:00 3,8 2,6 0 0 N 1024,4
20.02.2019 01:00:00 4,0 2,5 0 0 N 1024,1
20.02.2019 00:00:00 4,6 2,4 0 0 N 1024,2
19.02.2019 23:00:00 5,5 2,5 0 0 N 1023,6
19.02.2019 22:00:00 6,3 2,7 0 0 N 1023,5
19.02.2019 21:00:00 8,0 4,2 2 1 SSE 1022,8
19.02.2019 20:00:00 9,4 3,5 0 0 N 1022,1
19.02.2019 19:00:00 11,0 4,4 0 0 N 1021,5
19.02.2019 18:00:00 13,1 5,4 0 0 N 1020,9
19.02.2019 17:00:00 14,5 6,0 5 3 SSW 1020,8
19.02.2019 16:00:00 15,2 6,4 8 4 SSW 1020,8
19.02.2019 15:00:00 15,7 6,6 4 2 SW 1020,8
19.02.2019 14:00:00 15,9 7,1 8 4 WSW 1021,2
19.02.2019 13:00:00 11,6 6,0 0 0 N 1022,1
19.02.2019 12:00:00 11,8 5,4 8 4 NE 1022,9
19.02.2019 11:00:00 10,2 5,7 0 0 N 1023,2
19.02.2019 10:00:00 8,5 5,6 0 0 N 1023,2
19.02.2019 09:00:00 5,6 5,0 0 0 N 1022,9
19.02.2019 08:00:00 3,4 2,2 0 0 N 1022,6
19.02.2019 07:00:00 3,2 1,7 0 0 N 1022,1
19.02.2019 06:00:00 3,3 1,5 0 0 N 1022,2
19.02.2019 05:00:00 3,4 1,6 0 0 N 1022,0
19.02.2019 04:00:00 3,8 1,8 0 0 N 1022,0
19.02.2019 03:00:00 4,1 1,8 0 0 N 1022,3
19.02.2019 02:00:00 4,9 2,7 0 0 N 1022,6
19.02.2019 01:00:00 5,0 3,2 0 0 N 1022,7
19.02.2019 00:00:00 5,0 3,0 0 0 N 1022,7
18.02.2019 23:00:00 5,7 3,3 0 0 N 1022,8
18.02.2019 22:00:00 6,1 3,6 0 0 N 1022,8
18.02.2019 21:00:00 6,9 3,8 0 0 N 1022,7
18.02.2019 20:00:00 8,0 4,2 0 0 N 1022,5
18.02.2019 19:00:00 8,9 4,8 0 0 N 1022,2
18.02.2019 18:00:00 10,4 5,5 0 0 N 1021,8
18.02.2019 17:00:00 11,5 7,4 0 0 N 1021,8
18.02.2019 16:00:00 11,7 7,8 0 0 N 1022,0
18.02.2019 15:00:00 11,8 6,4 0 0 N 1022,4
18.02.2019 14:00:00 12,9 6,0 0 0 N 1023,0
18.02.2019 13:00:00 13,1 6,1 0 0 N 1023,8
18.02.2019 12:00:00 13,1 4,7 0 0 N 1024,6
18.02.2019 11:00:00 11,9 4,8 0 0 N 1025,1
18.02.2019 10:00:00 10,0 3,4 0 0 N 1025,2
18.02.2019 09:00:00 7,3 3,5 4 2 WNW 1025,3
18.02.2019 08:00:00 3,6 -0,3 0 0 N 1025,2
18.02.2019 07:00:00 3,6 -0,3 0 0 N 1025,1
18.02.2019 06:00:00 4,2 0,3 0 0 N 1025,1
18.02.2019 05:00:00 3,6 0,1 0 0 N 1025,1
18.02.2019 04:00:00 4,3 0,8 0 0 N 1025,1
18.02.2019 03:00:00 5,2 2,2 0 0 N 1025,5
18.02.2019 02:00:00 4,8 0,7 0 0 N 1025,8
18.02.2019 01:00:00 4,9 0,8 0 0 N 1026,0
18.02.2019 00:00:00 5,4 0,7 0 0 N 1026,0
17.02.2019 23:00:00 6,3 1,0 0 0 N 1026,2
17.02.2019 22:00:00 6,6 1,7 0 0 N 1026,3
17.02.2019 21:00:00 6,6 2,4 0 0 N 1026,1
17.02.2019 20:00:00 7,8 2,6 0 0 N 1025,9
17.02.2019 19:00:00 9,4 3,9 0 0 N 1025,6
17.02.2019 18:00:00 11,9 6,1 0 0 N 1025,4
17.02.2019 17:00:00 15,9 5,7 2 1 SW 1025,3
17.02.2019 16:00:00 16,3 6,6 2 1 SSW 1025,5
17.02.2019 15:00:00 14,6 6,1 0 0 N 1026,0
17.02.2019 14:00:00 15,1 6,0 0 0 N 1026,8
17.02.2019 13:00:00 12,2 7,0 0 0 N 1027,8
17.02.2019 12:00:00 12,3 7,1 0 0 N 1028,6
17.02.2019 11:00:00 11,0 4,6 0 0 N 1028,9
17.02.2019 10:00:00 9,8 3,7 0 0 N 1029,3
17.02.2019 09:00:00 6,2 2,4 0 0 N 1029,3
17.02.2019 08:00:00 4,0 -0,5 0 0 N 1029,4
17.02.2019 07:00:00 4,6 0,5 0 0 N 1028,7
17.02.2019 06:00:00 4,2 0,5 0 0 N 1028,9
17.02.2019 05:00:00 4,1 0,9 0 0 N 1028,9
17.02.2019 04:00:00 3,9 1,9 0 0 N 1029,0
17.02.2019 03:00:00 4,0 1,0 0 0 N 1029,5
17.02.2019 02:00:00 4,3 1,1 0 0 N 1029,6
17.02.2019 01:00:00 4,3 1,6 0 0 N 1029,8
17.02.2019 00:00:00 5,3 1,7 0 0 N 1029,9
16.02.2019 23:00:00 5,6 1,8 0 0 N 1029,9
16.02.2019 22:00:00 6,0 2,6 0 0 N 1030,2

tt = temperature
td = dewpoint
ff = wind speed
dd = wind direction
ppp = reduced air pressure

Next stations